sensor_id;sensor_type;location;lat;lon;timestamp;pressure;altitude;pressure_sealevel;temperature;humidity
74778;BME280;63298;53.164;8.610;2023-07-31T00:00:59;100924.81;;;18.30;68.23
74778;BME280;63298;53.164;8.610;2023-07-31T00:03:25;100934.03;;;18.30;68.83
74778;BME280;63298;53.164;8.610;2023-07-31T00:05:50;100916.72;;;18.28;68.35
74778;BME280;63298;53.164;8.610;2023-07-31T00:08:16;100932.59;;;18.33;68.43
74778;BME280;63298;53.164;8.610;2023-07-31T00:10:41;100926.19;;;18.32;68.66
74778;BME280;63298;53.164;8.610;2023-07-31T00:13:06;100913.06;;;18.28;68.92
74778;BME280;63298;53.164;8.610;2023-07-31T00:15:32;100894.44;;;18.13;69.02
74778;BME280;63298;53.164;8.610;2023-07-31T00:17:57;100918.09;;;18.26;69.42
74778;BME280;63298;53.164;8.610;2023-07-31T00:20:23;100916.16;;;18.26;69.28
74778;BME280;63298;53.164;8.610;2023-07-31T00:22:48;100905.00;;;18.21;69.35
74778;BME280;63298;53.164;8.610;2023-07-31T00:25:13;100905.28;;;18.25;69.37
74778;BME280;63298;53.164;8.610;2023-07-31T00:27:39;100908.66;;;18.17;70.05
74778;BME280;63298;53.164;8.610;2023-07-31T00:30:05;100911.16;;;18.18;70.09
74778;BME280;63298;53.164;8.610;2023-07-31T00:32:30;100915.63;;;18.19;70.07
74778;BME280;63298;53.164;8.610;2023-07-31T00:34:55;100909.50;;;18.17;70.36
74778;BME280;63298;53.164;8.610;2023-07-31T00:37:21;100895.56;;;18.07;70.35
74778;BME280;63298;53.164;8.610;2023-07-31T00:39:46;100893.34;;;18.04;70.68
74778;BME280;63298;53.164;8.610;2023-07-31T00:42:11;100889.97;;;18.07;70.64
74778;BME280;63298;53.164;8.610;2023-07-31T00:44:37;100900.03;;;18.08;70.53
74778;BME280;63298;53.164;8.610;2023-07-31T00:47:02;100898.34;;;18.07;70.49
74778;BME280;63298;53.164;8.610;2023-07-31T00:49:27;100907.31;;;18.09;70.17
74778;BME280;63298;53.164;8.610;2023-07-31T00:51:53;100901.44;;;18.10;70.16
74778;BME280;63298;53.164;8.610;2023-07-31T00:54:19;100896.69;;;18.06;70.34
74778;BME280;63298;53.164;8.610;2023-07-31T00:56:47;100886.69;;;18.00;70.90
74778;BME280;63298;53.164;8.610;2023-07-31T00:59:12;100879.41;;;17.99;70.78
74778;BME280;63298;53.164;8.610;2023-07-31T01:01:38;100889.44;;;18.05;70.40
74778;BME280;63298;53.164;8.610;2023-07-31T01:04:04;100864.06;;;17.91;70.49
74778;BME280;63298;53.164;8.610;2023-07-31T01:09:16;100888.41;;;17.91;71.40
74778;BME280;63298;53.164;8.610;2023-07-31T01:11:52;100882.53;;;17.87;71.62
74778;BME280;63298;53.164;8.610;2023-07-31T01:14:17;100889.50;;;17.95;71.08
74778;BME280;63298;53.164;8.610;2023-07-31T01:16:43;100902.03;;;17.92;71.07
74778;BME280;63298;53.164;8.610;2023-07-31T01:19:09;100890.03;;;17.92;71.06
74778;BME280;63298;53.164;8.610;2023-07-31T01:24:20;100896.44;;;17.97;71.26
74778;BME280;63298;53.164;8.610;2023-07-31T01:26:52;100887.25;;;17.92;71.12
74778;BME280;63298;53.164;8.610;2023-07-31T01:31:53;100878.84;;;17.97;71.13
74778;BME280;63298;53.164;8.610;2023-07-31T01:34:21;100873.84;;;17.94;71.48
74778;BME280;63298;53.164;8.610;2023-07-31T01:36:47;100873.00;;;17.93;71.28
74778;BME280;63298;53.164;8.610;2023-07-31T01:39:12;100868.28;;;17.94;71.49
74778;BME280;63298;53.164;8.610;2023-07-31T01:41:38;100869.94;;;17.95;71.84
74778;BME280;63298;53.164;8.610;2023-07-31T01:44:09;100866.06;;;17.91;71.67
74778;BME280;63298;53.164;8.610;2023-07-31T01:46:37;100863.22;;;17.96;71.86
74778;BME280;63298;53.164;8.610;2023-07-31T01:49:02;100863.28;;;17.91;71.80
74778;BME280;63298;53.164;8.610;2023-07-31T01:51:27;100856.53;;;17.92;71.81
74778;BME280;63298;53.164;8.610;2023-07-31T01:53:53;100848.50;;;17.85;72.35
74778;BME280;63298;53.164;8.610;2023-07-31T01:56:18;100835.13;;;17.77;72.65
74778;BME280;63298;53.164;8.610;2023-07-31T01:58:43;100841.03;;;17.65;73.34
74778;BME280;63298;53.164;8.610;2023-07-31T02:01:09;100832.94;;;17.64;73.73
74778;BME280;63298;53.164;8.610;2023-07-31T02:03:34;100836.28;;;17.66;73.24
74778;BME280;63298;53.164;8.610;2023-07-31T02:05:59;100827.09;;;17.65;73.08
74778;BME280;63298;53.164;8.610;2023-07-31T02:08:25;100830.13;;;17.69;73.01
74778;BME280;63298;53.164;8.610;2023-07-31T02:10:51;100820.66;;;17.65;72.97
74778;BME280;63298;53.164;8.610;2023-07-31T02:13:16;100817.84;;;17.70;73.27
74778;BME280;63298;53.164;8.610;2023-07-31T02:15:42;100833.50;;;17.66;72.97
74778;BME280;63298;53.164;8.610;2023-07-31T02:18:07;100848.25;;;17.66;73.45
74778;BME280;63298;53.164;8.610;2023-07-31T02:20:35;100830.16;;;17.59;73.49
74778;BME280;63298;53.164;8.610;2023-07-31T02:23:01;100837.69;;;17.63;73.47
74778;BME280;63298;53.164;8.610;2023-07-31T02:25:26;100833.50;;;17.66;73.77
74778;BME280;63298;53.164;8.610;2023-07-31T02:27:52;100823.72;;;17.63;73.59
74778;BME280;63298;53.164;8.610;2023-07-31T02:30:17;100829.88;;;17.65;73.58
74778;BME280;63298;53.164;8.610;2023-07-31T02:32:42;100824.28;;;17.65;73.48
74778;BME280;63298;53.164;8.610;2023-07-31T02:35:09;100820.66;;;17.70;73.38
74778;BME280;63298;53.164;8.610;2023-07-31T02:37:34;100820.09;;;17.68;73.63
74778;BME280;63298;53.164;8.610;2023-07-31T02:40:00;100817.88;;;17.65;73.92
74778;BME280;63298;53.164;8.610;2023-07-31T02:42:26;100819.56;;;17.61;73.98
74778;BME280;63298;53.164;8.610;2023-07-31T02:44:51;100829.88;;;17.65;74.00
74778;BME280;63298;53.164;8.610;2023-07-31T02:47:17;100824.31;;;17.60;74.44
74778;BME280;63298;53.164;8.610;2023-07-31T02:49:43;100812.84;;;17.57;74.27
74778;BME280;63298;53.164;8.610;2023-07-31T02:52:08;100825.69;;;17.63;74.45
74778;BME280;63298;53.164;8.610;2023-07-31T02:54:34;100831.81;;;17.65;74.45
74778;BME280;63298;53.164;8.610;2023-07-31T02:56:59;100810.03;;;17.57;74.55
74778;BME280;63298;53.164;8.610;2023-07-31T02:59:25;100812.00;;;17.56;74.37
74778;BME280;63298;53.164;8.610;2023-07-31T03:01:50;100825.94;;;17.56;75.04
74778;BME280;63298;53.164;8.610;2023-07-31T03:04:15;100825.13;;;17.56;74.70
74778;BME280;63298;53.164;8.610;2023-07-31T03:06:41;100822.63;;;17.54;74.94
74778;BME280;63298;53.164;8.610;2023-07-31T03:09:06;100815.94;;;17.50;74.86
74778;BME280;63298;53.164;8.610;2023-07-31T03:11:32;100815.94;;;17.55;74.84
74778;BME280;63298;53.164;8.610;2023-07-31T03:13:57;100820.09;;;17.58;74.90
74778;BME280;63298;53.164;8.610;2023-07-31T03:16:23;100814.25;;;17.54;74.97
74778;BME280;63298;53.164;8.610;2023-07-31T03:18:48;100813.66;;;17.57;74.85
74778;BME280;63298;53.164;8.610;2023-07-31T03:21:14;100808.94;;;17.58;75.05
74778;BME280;63298;53.164;8.610;2023-07-31T03:23:39;100812.56;;;17.58;74.98
74778;BME280;63298;53.164;8.610;2023-07-31T03:26:07;100808.09;;;17.52;74.93
74778;BME280;63298;53.164;8.610;2023-07-31T03:28:33;100803.38;;;17.53;74.76
74778;BME280;63298;53.164;8.610;2023-07-31T03:30:58;100809.75;;;17.58;74.86
74778;BME280;63298;53.164;8.610;2023-07-31T03:33:24;100797.78;;;17.53;75.14
74778;BME280;63298;53.164;8.610;2023-07-31T03:35:49;100800.84;;;17.61;75.02
74778;BME280;63298;53.164;8.610;2023-07-31T03:38:15;100811.47;;;17.59;75.10
74778;BME280;63298;53.164;8.610;2023-07-31T03:40:40;100786.94;;;17.46;75.07
74778;BME280;63298;53.164;8.610;2023-07-31T03:43:05;100795.00;;;17.53;75.36
74778;BME280;63298;53.164;8.610;2023-07-31T03:45:31;100800.31;;;17.49;75.66
74778;BME280;63298;53.164;8.610;2023-07-31T03:47:56;100778.06;;;17.34;75.45
74778;BME280;63298;53.164;8.610;2023-07-31T03:50:22;100794.19;;;17.47;75.60
74778;BME280;63298;53.164;8.610;2023-07-31T03:52:47;100804.81;;;17.45;75.56
74778;BME280;63298;53.164;8.610;2023-07-31T03:55:12;100795.31;;;17.46;75.61
74778;BME280;63298;53.164;8.610;2023-07-31T03:57:38;100799.75;;;17.47;75.55
74778;BME280;63298;53.164;8.610;2023-07-31T04:00:03;100795.59;;;17.45;75.40
74778;BME280;63298;53.164;8.610;2023-07-31T04:02:29;100785.81;;;17.42;75.78
74778;BME280;63298;53.164;8.610;2023-07-31T04:04:54;100793.34;;;17.47;75.63
74778;BME280;63298;53.164;8.610;2023-07-31T04:07:19;100794.47;;;17.51;75.40
74778;BME280;63298;53.164;8.610;2023-07-31T04:09:45;100790.25;;;17.53;75.65
74778;BME280;63298;53.164;8.610;2023-07-31T04:12:10;100782.72;;;17.54;75.47
74778;BME280;63298;53.164;8.610;2023-07-31T04:14:35;100774.94;;;17.51;75.75
74778;BME280;63298;53.164;8.610;2023-07-31T04:17:01;100769.63;;;17.49;75.71
74778;BME280;63298;53.164;8.610;2023-07-31T04:19:26;100779.34;;;17.57;75.78
74778;BME280;63298;53.164;8.610;2023-07-31T04:21:51;100775.19;;;17.54;75.64
74778;BME280;63298;53.164;8.610;2023-07-31T04:24:17;100759.59;;;17.48;75.58
74778;BME280;63298;53.164;8.610;2023-07-31T04:26:42;100766.00;;;17.54;75.96
74778;BME280;63298;53.164;8.610;2023-07-31T04:29:07;100766.56;;;17.51;75.95
74778;BME280;63298;53.164;8.610;2023-07-31T04:31:33;100750.69;;;17.46;75.92
74778;BME280;63298;53.164;8.610;2023-07-31T04:33:59;100760.69;;;17.52;75.72
74778;BME280;63298;53.164;8.610;2023-07-31T04:36:24;100757.91;;;17.52;75.83
74778;BME280;63298;53.164;8.610;2023-07-31T04:38:49;100765.41;;;17.62;75.85
74778;BME280;63298;53.164;8.610;2023-07-31T04:41:15;100772.41;;;17.64;75.86
74778;BME280;63298;53.164;8.610;2023-07-31T04:43:40;100769.03;;;17.62;75.52
74778;BME280;63298;53.164;8.610;2023-07-31T04:46:06;100767.94;;;17.63;75.83
74778;BME280;63298;53.164;8.610;2023-07-31T04:48:31;100765.41;;;17.62;75.94
74778;BME280;63298;53.164;8.610;2023-07-31T04:50:56;100767.09;;;17.58;76.20
74778;BME280;63298;53.164;8.610;2023-07-31T04:53:21;100765.13;;;17.58;75.95
74778;BME280;63298;53.164;8.610;2023-07-31T04:55:47;100769.03;;;17.62;75.98
74778;BME280;63298;53.164;8.610;2023-07-31T04:58:12;100752.31;;;17.62;75.96
74778;BME280;63298;53.164;8.610;2023-07-31T05:00:37;100756.22;;;17.61;76.28
74778;BME280;63298;53.164;8.610;2023-07-31T05:03:03;100757.03;;;17.62;76.30
74778;BME280;63298;53.164;8.610;2023-07-31T05:05:28;100757.34;;;17.65;76.12
74778;BME280;63298;53.164;8.610;2023-07-31T05:07:53;100757.84;;;17.67;76.32
74778;BME280;63298;53.164;8.610;2023-07-31T05:10:19;100752.03;;;17.64;76.17
74778;BME280;63298;53.164;8.610;2023-07-31T05:12:44;100750.88;;;17.70;76.28
74778;BME280;63298;53.164;8.610;2023-07-31T05:15:09;100748.38;;;17.68;76.22
74778;BME280;63298;53.164;8.610;2023-07-31T05:17:35;100752.25;;;17.73;76.17
74778;BME280;63298;53.164;8.610;2023-07-31T05:20:00;100744.47;;;17.69;76.48
74778;BME280;63298;53.164;8.610;2023-07-31T05:22:25;100743.06;;;17.67;76.17
74778;BME280;63298;53.164;8.610;2023-07-31T05:24:51;100745.88;;;17.67;76.57
74778;BME280;63298;53.164;8.610;2023-07-31T05:27:16;100740.31;;;17.62;76.58
74778;BME280;63298;53.164;8.610;2023-07-31T05:29:42;100739.47;;;17.61;76.46
74778;BME280;63298;53.164;8.610;2023-07-31T05:32:07;100740.03;;;17.63;76.52
74778;BME280;63298;53.164;8.610;2023-07-31T05:34:32;100736.41;;;17.63;76.72
74778;BME280;63298;53.164;8.610;2023-07-31T05:36:58;100728.31;;;17.61;76.85
74778;BME280;63298;53.164;8.610;2023-07-31T05:39:23;100719.94;;;17.61;76.87
74778;BME280;63298;53.164;8.610;2023-07-31T05:41:48;100724.13;;;17.64;76.69
74778;BME280;63298;53.164;8.610;2023-07-31T05:44:14;100713.53;;;17.66;76.94
74778;BME280;63298;53.164;8.610;2023-07-31T05:46:39;100720.44;;;17.74;76.99
74778;BME280;63298;53.164;8.610;2023-07-31T05:49:04;100720.69;;;17.77;76.71
74778;BME280;63298;53.164;8.610;2023-07-31T05:51:29;100722.34;;;17.83;76.81
74778;BME280;63298;53.164;8.610;2023-07-31T05:53:55;100715.13;;;17.77;76.70
74778;BME280;63298;53.164;8.610;2023-07-31T05:56:20;100715.94;;;17.78;76.96
74778;BME280;63298;53.164;8.610;2023-07-31T05:58:46;100710.66;;;17.76;76.78
74778;BME280;63298;53.164;8.610;2023-07-31T06:01:11;100687.31;;;17.62;76.83
74778;BME280;63298;53.164;8.610;2023-07-31T06:03:36;100713.44;;;17.76;77.11
74778;BME280;63298;53.164;8.610;2023-07-31T06:06:02;100711.25;;;17.73;76.94
74778;BME280;63298;53.164;8.610;2023-07-31T06:08:27;100711.28;;;17.68;77.35
74778;BME280;63298;53.164;8.610;2023-07-31T06:10:53;100709.31;;;17.68;77.33
74778;BME280;63298;53.164;8.610;2023-07-31T06:13:18;100686.78;;;17.60;77.24
74778;BME280;63298;53.164;8.610;2023-07-31T06:15:43;100701.47;;;17.76;77.33
74778;BME280;63298;53.164;8.610;2023-07-31T06:18:09;100699.19;;;17.83;77.16
74778;BME280;63298;53.164;8.610;2023-07-31T06:20:34;100685.00;;;17.74;77.15
74778;BME280;63298;53.164;8.610;2023-07-31T06:23:00;100704.16;;;17.91;77.22
74778;BME280;63298;53.164;8.610;2023-07-31T06:25:25;100691.63;;;17.88;76.93
74778;BME280;63298;53.164;8.610;2023-07-31T06:27:50;100669.06;;;17.80;77.02
74778;BME280;63298;53.164;8.610;2023-07-31T06:30:16;100694.06;;;18.00;76.95
74778;BME280;63298;53.164;8.610;2023-07-31T06:32:41;100671.25;;;17.88;77.26
74778;BME280;63298;53.164;8.610;2023-07-31T06:35:06;100694.53;;;18.07;76.98
74778;BME280;63298;53.164;8.610;2023-07-31T06:37:32;100661.16;;;17.92;76.98
74778;BME280;63298;53.164;8.610;2023-07-31T06:39:57;100683.38;;;18.07;76.78
74778;BME280;63298;53.164;8.610;2023-07-31T06:42:22;100679.50;;;18.03;77.29
74778;BME280;63298;53.164;8.610;2023-07-31T06:44:48;100676.16;;;18.01;77.19
74778;BME280;63298;53.164;8.610;2023-07-31T06:47:13;100682.28;;;18.03;77.23
74778;BME280;63298;53.164;8.610;2023-07-31T06:49:38;100675.06;;;17.97;77.14
74778;BME280;63298;53.164;8.610;2023-07-31T06:52:04;100678.94;;;18.01;77.73
74778;BME280;63298;53.164;8.610;2023-07-31T06:54:29;100687.59;;;18.04;77.60
74778;BME280;63298;53.164;8.610;2023-07-31T06:56:55;100685.94;;;18.03;77.39
74778;BME280;63298;53.164;8.610;2023-07-31T06:59:20;100682.81;;;18.10;77.46
74778;BME280;63298;53.164;8.610;2023-07-31T07:01:46;100677.50;;;18.08;77.22
74778;BME280;63298;53.164;8.610;2023-07-31T07:04:11;100693.09;;;18.15;77.29
74778;BME280;63298;53.164;8.610;2023-07-31T07:06:36;100651.03;;;18.01;77.34
74778;BME280;63298;53.164;8.610;2023-07-31T07:09:02;100659.88;;;18.13;77.65
74778;BME280;63298;53.164;8.610;2023-07-31T07:11:27;100672.97;;;18.18;77.54
74778;BME280;63298;53.164;8.610;2023-07-31T07:13:53;100670.13;;;18.23;77.70
74778;BME280;63298;53.164;8.610;2023-07-31T07:16:18;100630.34;;;18.07;77.67
74778;BME280;63298;53.164;8.610;2023-07-31T07:18:43;100649.44;;;18.29;77.67
74778;BME280;63298;53.164;8.610;2023-07-31T07:21:09;100659.94;;;18.37;77.21
74778;BME280;63298;53.164;8.610;2023-07-31T07:23:34;100654.09;;;18.38;77.24
74778;BME280;63298;53.164;8.610;2023-07-31T07:25:59;100650.22;;;18.34;77.28
74778;BME280;63298;53.164;8.610;2023-07-31T07:28:25;100641.28;;;18.32;77.31
74778;BME280;63298;53.164;8.610;2023-07-31T07:30:53;100639.66;;;18.26;77.58
74778;BME280;63298;53.164;8.610;2023-07-31T07:33:18;100647.09;;;18.36;77.40
74778;BME280;63298;53.164;8.610;2023-07-31T07:35:44;100649.06;;;18.35;77.54
74778;BME280;63298;53.164;8.610;2023-07-31T07:38:10;100652.69;;;18.36;77.86
74778;BME280;63298;53.164;8.610;2023-07-31T07:40:39;100639.66;;;18.26;77.85
74778;BME280;63298;53.164;8.610;2023-07-31T07:43:05;100625.44;;;18.23;78.04
74778;BME280;63298;53.164;8.610;2023-07-31T07:45:30;100648.00;;;18.31;78.24
74778;BME280;63298;53.164;8.610;2023-07-31T07:47:56;100648.00;;;18.31;78.67
74778;BME280;63298;53.164;8.610;2023-07-31T07:50:21;100635.50;;;18.24;78.37
74778;BME280;63298;53.164;8.610;2023-07-31T07:52:46;100638.53;;;18.27;78.60
74778;BME280;63298;53.164;8.610;2023-07-31T07:55:11;100640.75;;;18.30;78.89
74778;BME280;63298;53.164;8.610;2023-07-31T07:57:37;100640.22;;;18.28;78.83
74778;BME280;63298;53.164;8.610;2023-07-31T08:00:03;100642.41;;;18.31;79.16
74778;BME280;63298;53.164;8.610;2023-07-31T08:02:28;100628.25;;;18.23;79.98
74778;BME280;63298;53.164;8.610;2023-07-31T08:04:54;100626.53;;;18.27;79.86
74778;BME280;63298;53.164;8.610;2023-07-31T08:07:19;100635.97;;;18.31;80.02
74778;BME280;63298;53.164;8.610;2023-07-31T08:09:44;100635.97;;;18.31;80.31
74778;BME280;63298;53.164;8.610;2023-07-31T08:12:10;100603.44;;;18.16;80.24
74778;BME280;63298;53.164;8.610;2023-07-31T08:14:35;100631.22;;;18.31;80.22
74778;BME280;63298;53.164;8.610;2023-07-31T08:17:02;100631.22;;;18.31;80.36
74778;BME280;63298;53.164;8.610;2023-07-31T08:19:27;100603.13;;;18.23;80.10
74778;BME280;63298;53.164;8.610;2023-07-31T08:21:52;100621.97;;;18.36;80.06
74778;BME280;63298;53.164;8.610;2023-07-31T08:24:18;100616.66;;;18.39;80.13
74778;BME280;63298;53.164;8.610;2023-07-31T08:26:43;100606.66;;;18.33;79.92
74778;BME280;63298;53.164;8.610;2023-07-31T08:29:08;100617.91;;;18.52;80.18
74778;BME280;63298;53.164;8.610;2023-07-31T08:31:34;100617.00;;;18.62;80.02
74778;BME280;63298;53.164;8.610;2023-07-31T08:33:59;100602.97;;;18.67;80.17
74778;BME280;63298;53.164;8.610;2023-07-31T08:36:24;100602.13;;;18.66;80.43
74778;BME280;63298;53.164;8.610;2023-07-31T08:38:50;100602.41;;;18.70;79.86
74778;BME280;63298;53.164;8.610;2023-07-31T08:41:16;100597.31;;;18.72;79.88
74778;BME280;63298;53.164;8.610;2023-07-31T08:43:42;100604.81;;;18.76;79.99
74778;BME280;63298;53.164;8.610;2023-07-31T08:46:08;100596.47;;;18.71;79.83
74778;BME280;63298;53.164;8.610;2023-07-31T08:48:33;100598.44;;;18.71;79.74
74778;BME280;63298;53.164;8.610;2023-07-31T08:51:00;100600.06;;;18.77;79.66
74778;BME280;63298;53.164;8.610;2023-07-31T08:53:26;100601.44;;;18.79;79.63
74778;BME280;63298;53.164;8.610;2023-07-31T08:55:53;100598.31;;;18.81;79.31
74778;BME280;63298;53.164;8.610;2023-07-31T08:58:19;100598.59;;;18.84;79.39
74778;BME280;63298;53.164;8.610;2023-07-31T09:00:46;100605.47;;;18.92;79.71
74778;BME280;63298;53.164;8.610;2023-07-31T09:03:17;100616.88;;;18.95;79.28
74778;BME280;63298;53.164;8.610;2023-07-31T09:05:44;100607.91;;;18.98;79.19
74778;BME280;63298;53.164;8.610;2023-07-31T09:08:11;100601.22;;;18.94;78.98
74778;BME280;63298;53.164;8.610;2023-07-31T09:10:44;100606.25;;;18.97;78.79
74778;BME280;63298;53.164;8.610;2023-07-31T09:13:10;100598.97;;;18.96;78.25
74778;BME280;63298;53.164;8.610;2023-07-31T09:15:36;100598.97;;;18.96;78.39
74778;BME280;63298;53.164;8.610;2023-07-31T09:18:03;100595.06;;;18.97;78.62
74778;BME280;63298;53.164;8.610;2023-07-31T09:20:29;100603.16;;;18.99;78.57
74778;BME280;63298;53.164;8.610;2023-07-31T09:22:55;100598.19;;;18.91;78.49
74778;BME280;63298;53.164;8.610;2023-07-31T09:25:24;100604.13;;;18.89;78.56
74778;BME280;63298;53.164;8.610;2023-07-31T09:27:55;100585.91;;;18.68;78.83
74778;BME280;63298;53.164;8.610;2023-07-31T09:30:21;100595.00;;;18.79;78.75
74778;BME280;63298;53.164;8.610;2023-07-31T09:32:48;100590.53;;;18.78;79.00
74778;BME280;63298;53.164;8.610;2023-07-31T09:35:21;100596.13;;;18.78;79.20
74778;BME280;63298;53.164;8.610;2023-07-31T09:37:52;100593.84;;;18.80;79.35
74778;BME280;63298;53.164;8.610;2023-07-31T09:40:34;100583.50;;;18.80;79.34
74778;BME280;63298;53.164;8.610;2023-07-31T09:43:06;100582.03;;;18.88;79.37
74778;BME280;63298;53.164;8.610;2023-07-31T09:45:35;100580.78;;;18.99;79.27
74778;BME280;63298;53.164;8.610;2023-07-31T09:48:01;100574.81;;;19.06;78.96
74778;BME280;63298;53.164;8.610;2023-07-31T09:50:26;100562.13;;;19.13;79.02
74778;BME280;63298;53.164;8.610;2023-07-31T09:52:52;100552.53;;;19.19;79.59
74778;BME280;63298;53.164;8.610;2023-07-31T09:55:18;100559.34;;;19.32;78.94
74778;BME280;63298;53.164;8.610;2023-07-31T09:57:48;100539.53;;;19.28;79.56
74778;BME280;63298;53.164;8.610;2023-07-31T10:03:42;100510.59;;;19.38;78.51
74778;BME280;63298;53.164;8.610;2023-07-31T10:06:09;100532.06;;;19.42;79.13
74778;BME280;63298;53.164;8.610;2023-07-31T10:08:36;100542.06;;;19.49;78.65
74778;BME280;63298;53.164;8.610;2023-07-31T10:11:03;100529.25;;;19.42;79.02
74778;BME280;63298;53.164;8.610;2023-07-31T10:13:30;100535.94;;;19.47;78.91
74778;BME280;63298;53.164;8.610;2023-07-31T10:15:58;100532.88;;;19.43;78.67
74778;BME280;63298;53.164;8.610;2023-07-31T10:18:24;100525.69;;;19.37;79.22
74778;BME280;63298;53.164;8.610;2023-07-31T10:20:50;100525.63;;;19.42;78.81
74778;BME280;63298;53.164;8.610;2023-07-31T10:23:16;100524.44;;;19.48;78.94
74778;BME280;63298;53.164;8.610;2023-07-31T10:25:42;100530.88;;;19.49;78.83
74778;BME280;63298;53.164;8.610;2023-07-31T10:28:09;100503.91;;;19.34;78.77
74778;BME280;63298;53.164;8.610;2023-07-31T10:30:36;100506.41;;;19.35;78.76
74778;BME280;63298;53.164;8.610;2023-07-31T10:33:03;100513.75;;;19.50;79.18
74778;BME280;63298;53.164;8.610;2023-07-31T10:35:29;100506.56;;;19.44;78.93
74778;BME280;63298;53.164;8.610;2023-07-31T10:37:54;100510.22;;;19.45;79.18
74778;BME280;63298;53.164;8.610;2023-07-31T10:40:26;100506.03;;;19.42;79.36
74778;BME280;63298;53.164;8.610;2023-07-31T10:42:56;100503.03;;;19.38;79.26
74778;BME280;63298;53.164;8.610;2023-07-31T10:45:39;100509.91;;;19.46;80.25
74778;BME280;63298;53.164;8.610;2023-07-31T10:48:14;100501.16;;;19.53;79.12
74778;BME280;63298;53.164;8.610;2023-07-31T10:50:51;100493.59;;;19.53;79.95
74778;BME280;63298;53.164;8.610;2023-07-31T10:53:23;100504.91;;;19.62;80.12
74778;BME280;63298;53.164;8.610;2023-07-31T10:55:49;100498.09;;;19.68;79.31
74778;BME280;63298;53.164;8.610;2023-07-31T10:58:18;100498.50;;;19.75;79.29
74778;BME280;63298;53.164;8.610;2023-07-31T11:00:44;100488.16;;;19.75;78.99
74778;BME280;63298;53.164;8.610;2023-07-31T11:03:17;100492.31;;;19.78;79.40
74778;BME280;63298;53.164;8.610;2023-07-31T11:10:45;100492.56;;;19.95;78.73
74778;BME280;63298;53.164;8.610;2023-07-31T11:13:11;100480.31;;;19.91;78.52
74778;BME280;63298;53.164;8.610;2023-07-31T11:15:36;100480.97;;;20.02;78.54
74778;BME280;63298;53.164;8.610;2023-07-31T11:18:02;100462.97;;;19.89;78.81
74778;BME280;63298;53.164;8.610;2023-07-31T11:20:29;100483.75;;;20.02;78.57
74778;BME280;63298;53.164;8.610;2023-07-31T11:23:01;100477.91;;;19.98;78.71
74778;BME280;63298;53.164;8.610;2023-07-31T11:25:29;100472.00;;;19.86;78.93
74778;BME280;63298;53.164;8.610;2023-07-31T11:27:54;100483.94;;;19.92;78.84
74778;BME280;63298;53.164;8.610;2023-07-31T11:30:20;100455.59;;;19.79;79.13
74778;BME280;63298;53.164;8.610;2023-07-31T11:32:45;100470.63;;;19.83;79.36
74778;BME280;63298;53.164;8.610;2023-07-31T11:35:13;100466.28;;;19.77;79.56
74778;BME280;63298;53.164;8.610;2023-07-31T11:37:40;100459.75;;;19.82;79.78
74778;BME280;63298;53.164;8.610;2023-07-31T11:40:06;100459.22;;;19.80;79.89
74778;BME280;63298;53.164;8.610;2023-07-31T11:42:31;100480.22;;;19.96;79.54
74778;BME280;63298;53.164;8.610;2023-07-31T11:44:57;100465.69;;;19.94;79.47
74778;BME280;63298;53.164;8.610;2023-07-31T11:47:22;100453.53;;;19.85;79.15
74778;BME280;63298;53.164;8.610;2023-07-31T11:49:48;100459.56;;;19.92;79.60
74778;BME280;63298;53.164;8.610;2023-07-31T11:52:15;100467.06;;;19.97;79.65
74778;BME280;63298;53.164;8.610;2023-07-31T11:54:40;100472.22;;;19.90;80.26
74778;BME280;63298;53.164;8.610;2023-07-31T11:57:06;100473.34;;;19.89;80.14
74778;BME280;63298;53.164;8.610;2023-07-31T11:59:32;100460.38;;;19.79;80.25
74778;BME280;63298;53.164;8.610;2023-07-31T12:01:58;100464.31;;;19.78;80.44
74778;BME280;63298;53.164;8.610;2023-07-31T12:04:24;100460.06;;;19.80;80.36
74778;BME280;63298;53.164;8.610;2023-07-31T12:06:52;100453.34;;;19.81;80.89
74778;BME280;63298;53.164;8.610;2023-07-31T12:09:18;100459.97;;;19.86;80.97
74778;BME280;63298;53.164;8.610;2023-07-31T12:11:44;100466.81;;;19.93;80.62
74778;BME280;63298;53.164;8.610;2023-07-31T12:14:41;100468.47;;;19.94;81.90
74778;BME280;63298;53.164;8.610;2023-07-31T12:17:06;100457.91;;;19.91;82.05
74778;BME280;63298;53.164;8.610;2023-07-31T12:19:33;100447.34;;;19.88;81.20
74778;BME280;63298;53.164;8.610;2023-07-31T12:21:59;100456.69;;;19.97;81.27
74778;BME280;63298;53.164;8.610;2023-07-31T12:24:26;100444.66;;;19.97;81.43
74778;BME280;63298;53.164;8.610;2023-07-31T12:26:51;100429.91;;;19.91;81.30
74778;BME280;63298;53.164;8.610;2023-07-31T12:29:17;100437.81;;;20.03;81.31
74778;BME280;63298;53.164;8.610;2023-07-31T12:31:42;100434.69;;;20.04;81.16
74778;BME280;63298;53.164;8.610;2023-07-31T12:34:42;100429.81;;;20.10;81.84
74778;BME280;63298;53.164;8.610;2023-07-31T12:37:07;100418.22;;;20.03;80.78
74778;BME280;63298;53.164;8.610;2023-07-31T12:39:33;100408.88;;;20.07;81.21
74778;BME280;63298;53.164;8.610;2023-07-31T12:41:58;100423.72;;;20.21;81.14
74778;BME280;63298;53.164;8.610;2023-07-31T12:44:27;100407.09;;;20.11;81.75
74778;BME280;63298;53.164;8.610;2023-07-31T12:46:52;100419.88;;;20.17;81.26
74778;BME280;63298;53.164;8.610;2023-07-31T12:49:18;100418.22;;;20.16;81.49
74778;BME280;63298;53.164;8.610;2023-07-31T12:51:43;100421.75;;;20.22;81.52
74778;BME280;63298;53.164;8.610;2023-07-31T12:54:09;100424.22;;;20.23;81.55
74778;BME280;63298;53.164;8.610;2023-07-31T12:56:34;100410.19;;;20.23;81.07
74778;BME280;63298;53.164;8.610;2023-07-31T12:58:59;100384.06;;;20.14;81.25
74778;BME280;63298;53.164;8.610;2023-07-31T13:01:25;100408.06;;;20.34;81.13